Time;durP1;ratioP1;P1;durP2;ratioP2;P2;SDS_P1;SDS_P2;PMS_P1;PMS_P2;Temp;Humidity;BMP_temperature;BMP_pressure;BME280_temperature;BME280_humidity;BME280_pressure;Samples;Min_cycle;Max_cycle;Signal;HPM_P1;HPM_P2
2021/11/24 00:00:55;;;;;;;2.60;2.40;;;1.00;93.50;;;;;;5012095;28;20821;-50
2021/11/24 00:03:21;;;;;;;3.40;2.77;;;1.00;93.60;;;;;;5012497;28;20171;-50
2021/11/24 00:05:46;;;;;;;4.37;2.40;;;1.00;93.60;;;;;;5011845;28;20172;-48
2021/11/24 00:08:12;;;;;;;3.13;2.50;;;1.00;93.60;;;;;;5011655;28;20196;-52
2021/11/24 00:10:38;;;;;;;2.63;2.43;;;1.00;93.60;;;;;;5011752;28;20173;-50
2021/11/24 00:13:04;;;;;;;2.67;2.47;;;0.90;93.70;;;;;;5012294;28;20172;-43
2021/11/24 00:15:30;;;;;;;3.33;2.67;;;0.90;93.70;;;;;;5011604;28;20239;-49
2021/11/24 00:17:56;;;;;;;2.87;2.40;;;0.80;93.70;;;;;;5011947;28;20431;-46
2021/11/24 00:20:21;;;;;;;2.87;2.50;;;0.80;93.80;;;;;;5011876;28;20902;-47
2021/11/24 00:22:47;;;;;;;3.53;2.37;;;0.80;93.80;;;;;;5011869;28;20173;-48
2021/11/24 00:25:13;;;;;;;3.10;2.50;;;0.80;93.80;;;;;;5011859;28;20180;-48
2021/11/24 00:27:39;;;;;;;2.70;2.50;;;0.80;93.80;;;;;;5011719;28;20916;-46
2021/11/24 00:30:06;;;;;;;3.27;2.70;;;0.80;93.80;;;;;;5010872;28;20184;-42
2021/11/24 00:32:33;;;;;;;3.67;2.70;;;0.80;93.80;;;;;;5011585;28;20423;-51
2021/11/24 00:34:59;;;;;;;3.03;2.30;;;0.80;93.90;;;;;;5011534;28;20513;-51
2021/11/24 00:37:25;;;;;;;3.33;2.53;;;0.70;93.90;;;;;;5011557;28;20455;-49
2021/11/24 00:39:50;;;;;;;2.50;2.30;;;0.70;93.90;;;;;;5013071;28;20168;-45
2021/11/24 00:42:16;;;;;;;2.60;2.13;;;0.70;93.90;;;;;;5011954;28;20586;-48
2021/11/24 00:44:42;;;;;;;2.60;2.40;;;0.70;94.00;;;;;;5011362;28;20180;-45
2021/11/24 00:47:08;;;;;;;3.13;2.67;;;0.60;93.90;;;;;;5011708;28;20607;-52
2021/11/24 00:49:35;;;;;;;3.13;2.50;;;0.60;94.00;;;;;;5011728;28;20683;-48
2021/11/24 00:52:02;;;;;;;2.67;2.37;;;0.60;94.00;;;;;;5011805;28;20411;-51
2021/11/24 00:54:28;;;;;;;2.87;2.20;;;0.60;94.00;;;;;;5011477;28;20455;-46
2021/11/24 00:56:53;;;;;;;3.03;2.47;;;0.50;94.10;;;;;;5011286;28;20482;-48
2021/11/24 00:59:19;;;;;;;3.13;2.30;;;0.50;94.10;;;;;;5011575;28;20184;-52
2021/11/24 01:01:44;;;;;;;2.37;2.17;;;0.50;94.10;;;;;;5011691;28;20172;-49
2021/11/24 01:04:10;;;;;;;2.40;2.20;;;0.50;94.10;;;;;;5011612;28;20173;-50
2021/11/24 01:06:36;;;;;;;2.57;2.27;;;0.50;94.10;;;;;;5012893;28;20582;-52
2021/11/24 01:09:02;;;;;;;2.43;2.23;;;0.50;94.10;;;;;;5015582;28;20176;-45
2021/11/24 01:11:28;;;;;;;2.20;1.90;;;0.50;94.10;;;;;;5015686;28;20192;-53
2021/11/24 01:13:53;;;;;;;2.03;1.90;;;0.50;94.20;;;;;;5015677;28;20803;-45
2021/11/24 01:16:19;;;;;;;2.30;2.10;;;0.50;94.10;;;;;;5015015;28;20192;-51
2021/11/24 01:18:45;;;;;;;2.30;2.10;;;0.50;94.10;;;;;;5015567;28;20179;-47
2021/11/24 01:21:10;;;;;;;1.90;1.80;;;0.40;94.10;;;;;;5015510;28;20181;-50
2021/11/24 01:23:36;;;;;;;2.13;1.93;;;0.50;94.10;;;;;;5015541;28;20535;-47
2021/11/24 01:26:01;;;;;;;2.13;1.93;;;0.50;94.20;;;;;;5015331;28;20180;-49
2021/11/24 01:28:27;;;;;;;2.20;2.00;;;0.40;94.10;;;;;;5015419;28;20164;-50
2021/11/24 01:30:53;;;;;;;2.17;1.97;;;0.40;94.20;;;;;;5015192;28;20176;-48
2021/11/24 01:33:18;;;;;;;2.77;2.17;;;0.40;94.20;;;;;;5015375;28;20173;-46
2021/11/24 01:35:44;;;;;;;2.10;1.90;;;0.40;94.30;;;;;;5014765;28;20275;-45
2021/11/24 01:38:10;;;;;;;2.27;2.07;;;0.30;94.30;;;;;;5015029;28;20236;-53
2021/11/24 01:40:36;;;;;;;2.20;2.00;;;0.30;94.40;;;;;;5015253;28;20168;-47
2021/11/24 01:43:01;;;;;;;2.07;1.87;;;0.30;94.80;;;;;;5015180;28;20168;-49
2021/11/24 01:45:27;;;;;;;2.50;2.00;;;0.20;94.50;;;;;;5014131;28;20225;-45
2021/11/24 01:47:53;;;;;;;2.07;1.87;;;0.20;94.60;;;;;;5014825;28;20199;-44
2021/11/24 01:50:20;;;;;;;2.13;1.87;;;0.20;94.60;;;;;;5014989;28;20408;-50
2021/11/24 01:52:47;;;;;;;2.07;1.87;;;0.20;94.60;;;;;;5014899;28;20172;-50
2021/11/24 01:55:14;;;;;;;2.23;2.03;;;0.10;94.70;;;;;;5014552;28;20463;-45
2021/11/24 01:57:42;;;;;;;2.10;1.83;;;0.10;94.70;;;;;;5014692;28;20419;-46
2021/11/24 02:00:08;;;;;;;1.70;1.60;;;0.10;94.70;;;;;;5013480;28;20414;-46
2021/11/24 02:02:34;;;;;;;2.20;1.70;;;0.10;94.80;;;;;;5014639;28;20886;-49
2021/11/24 02:05:00;;;;;;;1.90;1.80;;;0.10;94.70;;;;;;5014467;28;20407;-46
2021/11/24 02:07:25;;;;;;;1.87;1.77;;;0.10;94.70;;;;;;5014476;28;20753;-50
2021/11/24 02:09:51;;;;;;;2.37;2.07;;;0.00;94.70;;;;;;5014733;28;20173;-46
2021/11/24 02:12:17;;;;;;;1.97;1.87;;;0.00;94.80;;;;;;5014759;28;20268;-46
2021/11/24 02:14:43;;;;;;;1.87;1.70;;;-0.10;94.70;;;;;;5013947;28;20587;-50
2021/11/24 02:17:12;;;;;;;2.17;1.93;;;-0.10;94.90;;;;;;5014622;28;20196;-48
2021/11/24 02:19:38;;;;;;;2.13;1.90;;;-0.10;94.90;;;;;;5014447;28;20443;-51
2021/11/24 02:22:04;;;;;;;1.90;1.80;;;-0.10;95.20;;;;;;5014371;28;20443;-47
2021/11/24 02:24:33;;;;;;;2.30;2.10;;;-0.10;94.90;;;;;;5014401;28;20172;-47
2021/11/24 02:26:59;;;;;;;2.17;1.77;;;-0.10;94.90;;;;;;5013994;28;20455;-49
2021/11/24 02:29:26;;;;;;;2.07;1.90;;;-0.20;94.90;;;;;;5014387;28;20422;-46
2021/11/24 02:31:56;;;;;;;2.40;1.97;;;-0.20;94.90;;;;;;5009701;28;20415;-44
2021/11/24 02:34:23;;;;;;;1.97;1.77;;;-0.20;95.00;;;;;;5014106;28;20451;-50
2021/11/24 02:36:48;;;;;;;2.30;2.10;;;-0.20;95.00;;;;;;5013641;28;20973;-47
2021/11/24 02:39:14;;;;;;;1.90;1.80;;;-0.20;95.00;;;;;;5013941;28;20408;-46
2021/11/24 02:41:40;;;;;;;2.93;1.77;;;-0.20;95.00;;;;;;5013992;28;20173;-49
2021/11/24 02:44:17;;;;;;;2.10;1.87;;;-0.20;95.00;;;;;;5013977;28;20175;-50
2021/11/24 02:46:42;;;;;;;1.70;1.50;;;-0.20;95.00;;;;;;5013620;28;20565;-49
2021/11/24 02:49:08;;;;;;;1.83;1.73;;;-0.20;94.90;;;;;;5014017;28;20449;-46
2021/11/24 02:51:33;;;;;;;1.93;1.80;;;-0.20;94.90;;;;;;5013867;28;20255;-48
2021/11/24 02:53:59;;;;;;;1.70;1.60;;;-0.20;94.90;;;;;;5013728;28;20208;-51
2021/11/24 02:56:25;;;;;;;2.13;1.93;;;-0.20;94.80;;;;;;5013316;28;20694;-52
2021/11/24 02:58:50;;;;;;;1.70;1.60;;;-0.20;94.80;;;;;;5013755;28;20630;-48
2021/11/24 03:01:16;;;;;;;1.60;1.50;;;-0.20;94.90;;;;;;5013678;28;20259;-46
2021/11/24 03:03:41;;;;;;;1.93;1.80;;;-0.20;94.80;;;;;;5013724;28;20168;-49
2021/11/24 03:06:07;;;;;;;1.73;1.63;;;-0.20;94.90;;;;;;5013178;28;20205;-46
2021/11/24 03:08:33;;;;;;;1.70;1.60;;;-0.20;94.90;;;;;;5013441;28;20164;-48
2021/11/24 03:10:58;;;;;;;1.50;1.40;;;-0.20;95.00;;;;;;5013395;28;20187;-49
2021/11/24 03:13:25;;;;;;;1.63;1.53;;;-0.20;94.90;;;;;;5013387;28;20220;-46
2021/11/24 03:15:51;;;;;;;1.90;1.70;;;-0.20;94.90;;;;;;5013005;28;20548;-47
2021/11/24 03:18:16;;;;;;;1.70;1.60;;;-0.20;94.90;;;;;;5013477;28;20197;-45
2021/11/24 03:20:42;;;;;;;1.67;1.57;;;-0.20;95.00;;;;;;5013328;28;20251;-50
2021/11/24 03:23:08;;;;;;;1.60;1.50;;;-0.20;95.00;;;;;;5013090;28;20180;-49
2021/11/24 03:25:35;;;;;;;1.80;1.70;;;-0.30;95.00;;;;;;5012902;28;20271;-49
2021/11/24 03:28:01;;;;;;;1.70;1.60;;;-0.30;95.10;;;;;;5013065;28;20571;-50
2021/11/24 03:30:28;;;;;;;1.57;1.47;;;-0.30;95.10;;;;;;5012701;28;20837;-49
2021/11/24 03:32:56;;;;;;;1.73;1.63;;;-0.30;95.20;;;;;;5013047;28;20424;-48
2021/11/24 03:35:23;;;;;;;3.77;1.70;;;-0.40;95.20;;;;;;5012634;28;20459;-48
2021/11/24 03:37:52;;;;;;;2.13;1.90;;;-0.40;95.20;;;;;;5012649;28;20451;-48
2021/11/24 03:40:22;;;;;;;2.03;1.93;;;-0.40;95.20;;;;;;5012982;28;20424;-50
2021/11/24 03:42:47;;;;;;;1.77;1.67;;;-0.40;95.30;;;;;;5012912;28;20419;-46
2021/11/24 03:45:16;;;;;;;1.60;1.50;;;-0.50;95.20;;;;;;5012682;28;20415;-50
2021/11/24 03:47:43;;;;;;;2.87;2.17;;;-0.50;95.30;;;;;;5012610;28;20214;-50
2021/11/24 03:50:10;;;;;;;1.97;1.73;;;-0.60;95.60;;;;;;5012713;28;20427;-48
2021/11/24 03:52:37;;;;;;;1.80;1.70;;;-0.60;95.70;;;;;;5012662;28;20411;-49
2021/11/24 03:55:05;;;;;;;1.93;1.83;;;-0.60;95.80;;;;;;5012414;28;20466;-52
2021/11/24 03:57:31;;;;;;;2.17;1.97;;;-0.70;95.80;;;;;;5012514;28;20510;-50
2021/11/24 03:59:56;;;;;;;2.03;1.83;;;-0.70;95.90;;;;;;5012490;28;20855;-48
2021/11/24 04:02:22;;;;;;;2.40;1.80;;;-0.70;95.90;;;;;;5012594;28;20183;-49
2021/11/24 04:04:48;;;;;;;2.20;2.00;;;-0.70;95.90;;;;;;5012114;28;20555;-45
2021/11/24 04:07:13;;;;;;;1.77;1.67;;;-0.70;96.00;;;;;;5012502;28;20494;-50
2021/11/24 04:09:39;;;;;;;2.60;1.83;;;-0.80;96.00;;;;;;5012369;28;20619;-52
2021/11/24 04:12:05;;;;;;;1.50;1.40;;;-0.80;96.10;;;;;;5012460;28;20267;-51
2021/11/24 04:14:31;;;;;;;1.63;1.53;;;-0.80;96.10;;;;;;5012201;28;20621;-51
2021/11/24 04:16:56;;;;;;;1.83;1.40;;;-0.80;96.20;;;;;;5012114;28;20431;-48
2021/11/24 04:19:22;;;;;;;1.47;1.20;;;-0.80;96.30;;;;;;5012066;28;20638;-52
2021/11/24 04:21:48;;;;;;;1.70;1.60;;;-0.90;96.30;;;;;;5012215;28;20212;-47
2021/11/24 04:24:13;;;;;;;1.40;1.30;;;-0.80;96.40;;;;;;5012123;28;20172;-49
2021/11/24 04:26:39;;;;;;;1.40;1.30;;;-0.80;96.40;;;;;;5011896;28;20196;-49
2021/11/24 04:29:05;;;;;;;1.83;1.43;;;-0.80;96.40;;;;;;5012487;28;20180;-50
2021/11/24 04:31:30;;;;;;;1.67;1.30;;;-0.80;96.50;;;;;;5012048;28;20177;-50
2021/11/24 04:33:56;;;;;;;1.40;1.30;;;-0.90;96.40;;;;;;5012305;28;20794;-52
2021/11/24 04:36:22;;;;;;;2.13;1.60;;;-0.90;96.30;;;;;;5011470;28;20214;-50
2021/11/24 04:38:47;;;;;;;1.30;1.20;;;-0.90;96.40;;;;;;5012099;28;20195;-52
2021/11/24 04:41:13;;;;;;;1.53;1.43;;;-0.90;96.60;;;;;;5011174;28;20176;-50
2021/11/24 04:43:43;;;;;;;1.67;1.57;;;-1.00;96.70;;;;;;5012081;28;20168;-50
2021/11/24 04:46:08;;;;;;;1.53;1.43;;;-1.10;96.90;;;;;;5011553;28;20168;-49
2021/11/24 04:48:36;;;;;;;1.20;1.10;;;-1.10;97.10;;;;;;5011946;28;20486;-48
2021/11/24 04:51:02;;;;;;;1.30;1.20;;;-1.20;97.20;;;;;;5011691;28;20169;-49
2021/11/24 04:53:27;;;;;;;1.53;1.43;;;-1.10;97.20;;;;;;5011911;28;20914;-46
2021/11/24 04:55:53;;;;;;;1.07;1.00;;;-1.10;97.30;;;;;;5011198;28;20208;-49
2021/11/24 04:58:19;;;;;;;1.40;1.30;;;-1.10;97.30;;;;;;5010521;28;20646;-49
2021/11/24 05:00:44;;;;;;;1.50;1.40;;;-1.00;97.40;;;;;;5011543;28;20260;-44
2021/11/24 05:03:10;;;;;;;1.40;1.30;;;-0.90;97.50;;;;;;5011696;28;20202;-48
2021/11/24 05:05:36;;;;;;;1.30;1.20;;;-0.90;97.50;;;;;;5011212;28;20498;-52
2021/11/24 05:08:02;;;;;;;1.53;1.20;;;-0.90;97.50;;;;;;5011439;28;20203;-50
2021/11/24 05:10:28;;;;;;;1.30;1.20;;;-0.80;97.60;;;;;;5011718;28;20204;-49
2021/11/24 05:12:53;;;;;;;1.67;1.57;;;-0.80;97.70;;;;;;5011576;28;20521;-49
2021/11/24 05:15:23;;;;;;;1.40;1.30;;;-0.80;97.80;;;;;;5011393;28;20204;-49
2021/11/24 05:17:55;;;;;;;1.60;1.50;;;-0.70;97.90;;;;;;5011449;28;20184;-49
2021/11/24 05:20:24;;;;;;;1.80;1.70;;;-0.70;98.00;;;;;;5011437;28;20419;-51
2021/11/24 05:22:50;;;;;;;2.10;1.90;;;-0.70;98.10;;;;;;5011397;28;20410;-47
2021/11/24 05:25:16;;;;;;;1.50;1.40;;;-0.70;98.20;;;;;;5011290;28;20933;-47
2021/11/24 05:27:42;;;;;;;1.50;1.40;;;-0.70;98.30;;;;;;5011272;28;20436;-48
2021/11/24 05:30:09;;;;;;;1.60;1.50;;;0.40;98.70;;;;;;5011779;28;20418;-46
2021/11/24 05:32:36;;;;;;;1.40;1.30;;;-0.60;98.20;;;;;;5011435;28;20179;-49
2021/11/24 05:35:03;;;;;;;1.57;1.47;;;-0.60;98.20;;;;;;5009758;28;20459;-46
2021/11/24 05:37:29;;;;;;;1.40;1.30;;;-0.60;98.20;;;;;;5011191;28;20447;-48
2021/11/24 05:39:54;;;;;;;1.40;1.30;;;-0.60;98.10;;;;;;5011307;28;20989;-49
2021/11/24 05:42:20;;;;;;;1.37;1.27;;;-0.60;98.20;;;;;;5011394;28;20173;-46
2021/11/24 05:44:49;;;;;;;1.33;1.23;;;-0.60;98.10;;;;;;5010975;28;20255;-51
2021/11/24 05:49:59;;;;;;;1.97;1.50;;;-0.60;98.40;;;;;;5011090;28;20491;-49
2021/11/24 05:52:25;;;;;;;1.40;1.30;;;-0.60;98.30;;;;;;5012608;28;20502;-46
2021/11/24 05:54:50;;;;;;;1.43;1.33;;;-0.70;98.10;;;;;;5014570;28;20607;-46
2021/11/24 05:57:16;;;;;;;1.67;1.40;;;-0.70;98.10;;;;;;5014695;28;20235;-45
2021/11/24 05:59:42;;;;;;;1.73;1.60;;;-0.80;98.20;;;;;;5014573;28;20528;-50
2021/11/24 06:02:08;;;;;;;1.70;1.60;;;-0.90;98.10;;;;;;5014733;28;20230;-48
2021/11/24 06:04:33;;;;;;;1.80;1.70;;;-0.90;98.20;;;;;;5022696;28;20186;-48
2021/11/24 06:06:59;;;;;;;1.60;1.50;;;-0.90;98.20;;;;;;5017554;28;20679;-47
2021/11/24 06:09:24;;;;;;;1.40;1.30;;;-1.00;98.10;;;;;;5014616;28;20247;-44
2021/11/24 06:11:50;;;;;;;1.60;1.50;;;-1.00;98.20;;;;;;5023888;28;20542;-44
2021/11/24 06:14:16;;;;;;;2.40;1.57;;;-1.00;98.20;;;;;;5013294;28;20208;-49
2021/11/24 06:16:41;;;;;;;1.73;1.43;;;-1.10;98.20;;;;;;5013787;28;20675;-42
2021/11/24 06:19:07;;;;;;;2.57;1.37;;;-1.10;98.20;;;;;;5014281;28;20188;-45
2021/11/24 06:21:32;;;;;;;1.77;1.67;;;-1.10;98.30;;;;;;5013237;28;20198;-45
2021/11/24 06:23:58;;;;;;;1.70;1.60;;;-1.10;98.20;;;;;;5014212;28;20643;-44
2021/11/24 06:26:23;;;;;;;2.03;1.83;;;-1.10;98.20;;;;;;5014198;28;20274;-42
2021/11/24 06:28:49;;;;;;;1.87;1.70;;;-1.10;98.30;;;;;;5014559;28;20176;-50
2021/11/24 06:31:16;;;;;;;1.40;1.30;;;-1.10;98.30;;;;;;5026365;28;20259;-49
2021/11/24 06:33:42;;;;;;;1.83;1.60;;;-1.10;98.50;;;;;;5013960;28;20639;-44
2021/11/24 06:36:08;;;;;;;1.40;1.30;;;-1.20;98.40;;;;;;5013620;28;20459;-43
2021/11/24 06:38:34;;;;;;;1.57;1.40;;;-1.20;98.40;;;;;;5014040;28;20434;-44
2021/11/24 06:40:59;;;;;;;1.30;1.20;;;-1.20;98.40;;;;;;5050292;23;20173;-45
2021/11/24 06:43:25;;;;;;;1.37;1.27;;;-1.20;98.30;;;;;;5027843;28;20686;-46
2021/11/24 06:45:51;;;;;;;2.30;1.53;;;-1.10;98.60;;;;;;5029597;28;20173;-41
2021/11/24 06:48:16;;;;;;;2.30;2.07;;;-1.10;98.60;;;;;;5036686;28;20726;-40
2021/11/24 06:50:42;;;;;;;5.30;3.57;;;-1.20;98.50;;;;;;5037469;28;20175;-43
2021/11/24 06:53:08;;;;;;;6.93;4.47;;;-1.20;98.60;;;;;;5008898;28;20519;-44
2021/11/24 06:55:34;;;;;;;9.03;4.97;;;-1.20;98.60;;;;;;5016369;28;20287;-42
2021/11/24 06:57:59;;;;;;;8.77;5.13;;;-1.30;98.80;;;;;;5014610;28;20172;-42
2021/11/24 07:00:26;;;;;;;7.33;4.73;;;-1.20;98.80;;;;;;5023993;28;20184;-41
2021/11/24 07:02:52;;;;;;;6.00;3.83;;;-1.20;99.10;;;;;;5010231;28;20188;-43
2021/11/24 07:05:18;;;;;;;5.20;3.23;;;-1.20;99.10;;;;;;5011852;28;20514;-41
2021/11/24 07:07:43;;;;;;;5.10;3.10;;;-1.20;99.10;;;;;;5009995;28;20510;-43
2021/11/24 07:10:09;;;;;;;3.90;2.63;;;-1.20;99.20;;;;;;5012806;28;20180;-48
2021/11/24 07:12:35;;;;;;;3.40;2.37;;;-1.10;99.40;;;;;;5012688;28;20312;-43
2021/11/24 07:15:01;;;;;;;3.03;2.30;;;-1.10;99.20;;;;;;5012883;28;20187;-43
2021/11/24 07:17:26;;;;;;;2.70;2.00;;;-1.00;99.20;;;;;;4995678;28;20200;-43
2021/11/24 07:19:52;;;;;;;3.10;2.10;;;-1.00;99.20;;;;;;5010343;28;20188;-44
2021/11/24 07:22:18;;;;;;;1.90;1.70;;;-0.90;99.30;;;;;;5013063;28;20730;-44
2021/11/24 07:24:44;;;;;;;1.40;1.30;;;-0.80;99.50;;;;;;5012240;28;20474;-42
2021/11/24 07:27:10;;;;;;;2.03;1.80;;;-0.70;99.50;;;;;;5013096;28;20439;-42
2021/11/24 07:29:36;;;;;;;1.60;1.50;;;-0.60;99.40;;;;;;5012660;28;20268;-44
2021/11/24 07:32:02;;;;;;;1.60;1.50;;;-0.60;99.30;;;;;;5012950;28;20208;-41
2021/11/24 07:34:29;;;;;;;2.27;1.90;;;-0.50;99.80;;;;;;5003000;28;20187;-43
2021/11/24 07:36:56;;;;;;;2.03;1.63;;;-0.40;99.60;;;;;;4989168;28;20427;-42
2021/11/24 07:39:22;;;;;;;2.67;2.20;;;-0.30;99.60;;;;;;5011559;28;20911;-45
2021/11/24 07:41:48;;;;;;;2.13;1.93;;;-0.30;99.60;;;;;;5011675;28;20451;-48
2021/11/24 07:44:13;;;;;;;1.93;1.80;;;-0.20;99.70;;;;;;5001200;28;20201;-44
2021/11/24 07:46:39;;;;;;;2.00;1.90;;;-0.20;99.80;;;;;;4992720;28;20176;-41
2021/11/24 07:49:05;;;;;;;2.73;1.97;;;-0.20;99.80;;;;;;4992281;28;20199;-40
2021/11/24 07:51:30;;;;;;;1.80;1.70;;;-0.10;99.90;;;;;;5010598;28;20204;-44
2021/11/24 07:53:56;;;;;;;1.57;1.47;;;0.00;99.90;;;;;;5012402;28;20180;-43
2021/11/24 07:56:22;;;;;;;1.70;1.60;;;0.00;99.90;;;;;;5012138;28;20251;-42
2021/11/24 07:58:48;;;;;;;1.73;1.40;;;0.00;99.90;;;;;;5012249;28;20259;-40
2021/11/24 08:01:14;;;;;;;1.40;1.30;;;0.10;99.90;;;;;;5012455;28;20486;-43
2021/11/24 08:03:40;;;;;;;1.00;1.00;;;0.20;99.90;;;;;;5012428;28;20180;-45
2021/11/24 08:06:06;;;;;;;1.10;1.00;;;0.20;99.90;;;;;;5012165;28;20200;-41
2021/11/24 08:08:32;;;;;;;1.50;1.40;;;0.30;99.90;;;;;;5012145;28;20423;-40
2021/11/24 08:10:58;;;;;;;1.27;1.17;;;0.40;99.90;;;;;;5012394;28;20408;-42
2021/11/24 08:13:25;;;;;;;1.33;1.23;;;0.50;99.90;;;;;;5012413;28;20416;-44
2021/11/24 08:15:50;;;;;;;1.50;1.40;;;0.50;99.90;;;;;;5011785;28;20470;-40
2021/11/24 08:18:16;;;;;;;1.73;1.43;;;0.60;99.90;;;;;;5012335;28;20910;-42
2021/11/24 08:20:42;;;;;;;2.27;1.87;;;0.60;99.90;;;;;;5012018;28;20575;-41
2021/11/24 08:23:08;;;;;;;1.70;1.60;;;0.60;99.90;;;;;;5012166;28;20408;-42
2021/11/24 08:25:34;;;;;;;1.40;1.30;;;0.60;99.90;;;;;;5011529;28;20307;-46
2021/11/24 08:28:00;;;;;;;1.70;1.60;;;0.60;99.90;;;;;;5012063;28;20165;-44
2021/11/24 08:30:26;;;;;;;1.50;1.40;;;0.60;99.90;;;;;;5012059;28;20411;-40
2021/11/24 08:32:52;;;;;;;1.27;1.27;;;0.60;99.90;;;;;;5011961;28;20188;-46
2021/11/24 08:35:19;;;;;;;1.47;1.37;;;0.70;99.90;;;;;;5011890;28;20180;-41
2021/11/24 08:37:45;;;;;;;1.30;1.20;;;0.70;99.90;;;;;;5011794;28;20470;-40
2021/11/24 08:40:11;;;;;;;1.43;1.33;;;0.70;99.90;;;;;;5010879;28;21097;-40
2021/11/24 08:42:38;;;;;;;1.40;1.30;;;0.80;99.90;;;;;;5011583;28;20478;-48
2021/11/24 08:45:06;;;;;;;1.33;1.23;;;0.80;99.90;;;;;;5011682;28;20497;-42
2021/11/24 08:47:32;;;;;;;1.20;1.10;;;0.90;99.90;;;;;;5011617;28;20431;-43
2021/11/24 08:49:58;;;;;;;1.50;1.40;;;1.00;99.90;;;;;;5011957;28;20403;-46
2021/11/24 08:52:23;;;;;;;1.83;1.50;;;1.00;99.90;;;;;;5011930;28;20188;-40
2021/11/24 08:54:49;;;;;;;1.20;1.10;;;1.10;99.90;;;;;;5011342;28;20176;-40
2021/11/24 08:57:15;;;;;;;1.00;1.00;;;1.30;99.90;;;;;;5011011;28;20184;-42
2021/11/24 08:59:40;;;;;;;1.00;1.00;;;1.40;99.90;;;;;;5000932;28;20184;-41
2021/11/24 09:02:08;;;;;;;1.30;1.20;;;1.70;99.90;;;;;;4992435;28;20201;-44
2021/11/24 09:04:34;;;;;;;1.57;1.47;;;1.80;99.90;;;;;;4991329;28;20208;-53
2021/11/24 09:07:00;;;;;;;1.00;1.00;;;1.90;99.90;;;;;;4991700;28;20420;-40
2021/11/24 09:09:26;;;;;;;1.40;1.30;;;2.10;99.90;;;;;;4993415;28;20181;-45
2021/11/24 09:11:51;;;;;;;1.33;1.23;;;2.30;99.90;;;;;;5004270;28;20263;-41
2021/11/24 09:14:19;;;;;;;1.17;1.13;;;2.40;99.90;;;;;;5011648;28;20586;-43
2021/11/24 09:16:45;;;;;;;1.23;1.13;;;2.50;99.90;;;;;;5011182;28;20222;-40
2021/11/24 09:19:10;;;;;;;1.40;1.30;;;2.70;99.90;;;;;;5011680;28;20221;-39
2021/11/24 09:21:36;;;;;;;1.30;1.20;;;2.80;99.90;;;;;;5011248;28;20192;-40
2021/11/24 09:24:11;;;;;;;1.17;1.13;;;3.00;99.90;;;;;;5010320;28;20180;-43
2021/11/24 09:26:42;;;;;;;1.40;1.30;;;3.20;99.90;;;;;;5011208;28;20188;-41
2021/11/24 09:29:10;;;;;;;1.10;1.10;;;3.50;99.90;;;;;;4996611;28;20177;-44
2021/11/24 09:31:36;;;;;;;1.50;1.33;;;4.00;99.90;;;;;;4995649;28;20209;-38
2021/11/24 09:34:03;;;;;;;1.20;1.10;;;4.10;99.90;;;;;;4995663;28;20236;-46
2021/11/24 09:36:29;;;;;;;1.47;1.37;;;4.30;99.90;;;;;;4995591;28;20268;-42
2021/11/24 09:38:55;;;;;;;1.47;1.37;;;4.50;99.90;;;;;;4995481;28;20177;-46
2021/11/24 09:41:24;;;;;;;1.43;1.33;;;4.80;99.90;;;;;;4995559;28;20267;-43
2021/11/24 09:43:52;;;;;;;1.30;1.20;;;5.10;99.90;;;;;;4995247;28;20636;-44
2021/11/24 09:46:19;;;;;;;1.57;1.47;;;5.40;99.40;;;;;;4995417;28;20655;-42
2021/11/24 09:48:48;;;;;;;1.43;1.33;;;5.60;98.70;;;;;;4995230;28;20220;-41
2021/11/24 09:51:14;;;;;;;1.50;1.40;;;5.60;98.30;;;;;;4995439;28;20193;-43
2021/11/24 09:53:42;;;;;;;1.30;1.20;;;5.60;98.20;;;;;;4995433;28;20181;-42
2021/11/24 09:56:08;;;;;;;1.33;1.23;;;5.50;98.10;;;;;;4994457;28;20181;-45
2021/11/24 09:58:34;;;;;;;1.63;1.40;;;5.40;98.10;;;;;;4994361;28;20551;-52
2021/11/24 10:00:59;;;;;;;1.43;1.33;;;5.40;98.10;;;;;;4993770;28;20672;-42
2021/11/24 10:03:26;;;;;;;1.10;1.10;;;5.30;98.20;;;;;;4995494;28;20547;-42
2021/11/24 10:05:52;;;;;;;1.30;1.20;;;5.20;98.20;;;;;;4995213;28;20201;-46
2021/11/24 10:08:18;;;;;;;1.40;1.30;;;5.10;98.40;;;;;;4995406;28;20232;-41
2021/11/24 10:10:44;;;;;;;3.00;1.60;;;5.10;98.80;;;;;;4995294;28;20358;-41
2021/11/24 10:13:10;;;;;;;1.53;1.43;;;5.00;98.90;;;;;;4995327;28;20170;-44
2021/11/24 10:15:41;;;;;;;1.83;1.47;;;5.00;98.90;;;;;;4995110;28;20678;-41
2021/11/24 10:18:22;;;;;;;1.80;1.70;;;5.00;98.90;;;;;;4995207;28;20264;-47
2021/11/24 10:21:03;;;;;;;1.57;1.47;;;5.10;99.00;;;;;;4995102;28;20177;-44
2021/11/24 10:23:33;;;;;;;1.43;1.33;;;5.00;99.00;;;;;;4995078;28;20174;-42
2021/11/24 10:26:23;;;;;;;1.40;1.30;;;4.90;99.30;;;;;;4994611;28;20192;-42
2021/11/24 10:29:03;;;;;;;1.53;1.43;;;5.00;99.60;;;;;;4995053;28;20197;-43
2021/11/24 10:31:53;;;;;;;1.50;1.40;;;5.00;99.80;;;;;;4994911;28;20197;-47
2021/11/24 10:34:18;;;;;;;1.60;1.40;;;5.10;99.60;;;;;;4988812;28;20660;-43
2021/11/24 10:37:10;;;;;;;1.40;1.30;;;5.20;99.50;;;;;;4994567;28;20184;-46
2021/11/24 10:39:40;;;;;;;1.70;1.50;;;5.10;99.40;;;;;;4986360;28;20208;-48
2021/11/24 10:42:08;;;;;;;1.20;1.20;;;5.10;99.20;;;;;;4994417;28;20208;-42
2021/11/24 10:44:35;;;;;;;1.10;1.10;;;5.00;99.10;;;;;;4994501;28;20247;-42
2021/11/24 10:47:02;;;;;;;1.33;1.23;;;5.00;99.30;;;;;;4994563;28;20197;-48
2021/11/24 10:49:55;;;;;;;1.47;1.33;;;4.90;99.40;;;;;;4994712;28;20321;-42
2021/11/24 10:52:20;;;;;;;1.67;1.57;;;5.00;99.50;;;;;;4994436;28;20192;-44
2021/11/24 10:55:11;;;;;;;1.60;1.50;;;5.00;99.50;;;;;;4994285;28;20202;-42
2021/11/24 10:57:38;;;;;;;1.40;1.30;;;4.90;99.50;;;;;;4994373;28;20177;-42
2021/11/24 11:00:17;;;;;;;1.67;1.57;;;5.00;99.70;;;;;;4994389;28;20181;-45
2021/11/24 11:02:45;;;;;;;1.37;1.27;;;5.10;99.90;;;;;;4994342;28;20197;-42
2021/11/24 11:05:17;;;;;;;1.73;1.63;;;5.30;99.90;;;;;;4994050;28;20683;-42
2021/11/24 11:07:48;;;;;;;1.20;1.20;;;5.50;99.90;;;;;;4994270;28;20169;-42
2021/11/24 11:10:19;;;;;;;1.67;1.57;;;5.70;99.80;;;;;;4994151;28;20184;-42
2021/11/24 11:12:47;;;;;;;1.60;1.50;;;5.80;99.50;;;;;;4994101;28;20216;-49
2021/11/24 11:15:29;;;;;;;1.57;1.47;;;5.80;99.20;;;;;;5001146;28;20176;-43
2021/11/24 11:17:56;;;;;;;1.70;1.60;;;5.80;99.10;;;;;;5013486;28;20260;-42
2021/11/24 11:20:25;;;;;;;1.50;1.40;;;5.80;99.20;;;;;;5013567;28;20169;-42
2021/11/24 11:23:10;;;;;;;2.00;1.80;;;5.90;99.30;;;;;;5013448;28;20192;-42
2021/11/24 11:25:39;;;;;;;1.57;1.47;;;6.00;99.60;;;;;;5013210;28;20192;-42
2021/11/24 11:28:05;;;;;;;1.50;1.40;;;6.10;99.70;;;;;;5013264;28;20571;-44
2021/11/24 11:30:32;;;;;;;1.50;1.40;;;6.10;99.40;;;;;;5013224;28;20191;-42
2021/11/24 11:32:58;;;;;;;1.27;1.23;;;6.10;99.20;;;;;;5013205;28;20185;-42
2021/11/24 11:35:25;;;;;;;1.70;1.60;;;6.00;99.10;;;;;;5012960;28;20695;-45
2021/11/24 11:37:51;;;;;;;1.47;1.37;;;6.00;99.00;;;;;;5013177;28;20525;-44
2021/11/24 11:40:17;;;;;;;1.77;1.67;;;5.80;99.20;;;;;;5013103;28;20183;-47
2021/11/24 11:42:45;;;;;;;1.57;1.43;;;5.60;99.30;;;;;;5013177;28;20294;-47
2021/11/24 11:45:13;;;;;;;1.40;1.30;;;5.50;99.50;;;;;;5012683;28;20705;-46
2021/11/24 11:47:48;;;;;;;1.83;1.73;;;5.40;99.70;;;;;;5013058;28;20164;-44
2021/11/24 11:50:37;;;;;;;1.80;1.40;;;5.30;99.90;;;;;;5012572;28;20563;-45
2021/11/24 11:53:28;;;;;;;1.60;1.50;;;5.20;99.90;;;;;;4993072;28;20236;-48
2021/11/24 11:56:05;;;;;;;1.50;1.40;;;5.20;99.90;;;;;;5012717;28;20207;-48
2021/11/24 11:58:32;;;;;;;1.50;1.40;;;5.10;99.90;;;;;;5013004;28;20172;-43
2021/11/24 12:01:16;;;;;;;1.60;1.50;;;5.10;99.90;;;;;;5011559;28;20234;-42
2021/11/24 12:04:01;;;;;;;1.83;1.37;;;5.10;99.90;;;;;;5012845;28;20195;-50
2021/11/24 12:06:33;;;;;;;1.57;1.47;;;5.00;99.90;;;;;;5012556;28;20176;-43
2021/11/24 12:09:14;;;;;;;1.80;1.70;;;4.90;99.90;;;;;;5012499;28;20180;-43
2021/11/24 12:11:58;;;;;;;1.47;1.37;;;4.80;99.90;;;;;;5012635;28;20207;-46
2021/11/24 12:14:39;;;;;;;1.57;1.47;;;4.80;99.90;;;;;;5012715;28;20251;-46
2021/11/24 12:17:30;;;;;;;1.77;1.67;;;4.70;99.90;;;;;;5012529;28;20264;-48
2021/11/24 12:19:58;;;;;;;2.30;2.03;;;4.60;99.90;;;;;;5012543;28;20171;-45
2021/11/24 12:22:49;;;;;;;2.30;2.10;;;4.60;99.90;;;;;;5012390;28;20196;-41
2021/11/24 12:25:23;;;;;;;2.00;1.80;;;4.50;99.90;;;;;;5012218;28;20278;-48
2021/11/24 12:27:58;;;;;;;2.40;1.47;;;4.40;99.90;;;;;;5012474;28;20578;-45
2021/11/24 12:30:35;;;;;;;1.50;1.40;;;4.40;99.90;;;;;;5012381;28;20647;-44
2021/11/24 12:33:04;;;;;;;1.83;1.70;;;4.30;99.90;;;;;;5012317;28;20214;-47
2021/11/24 12:35:30;;;;;;;1.30;1.20;;;4.20;99.90;;;;;;5012109;28;20180;-44
2021/11/24 12:37:57;;;;;;;1.70;1.60;;;4.20;99.90;;;;;;5012156;28;20203;-44
2021/11/24 12:40:29;;;;;;;1.87;1.77;;;4.10;99.90;;;;;;5012001;28;20192;-43
2021/11/24 12:42:56;;;;;;;2.33;1.83;;;4.10;99.90;;;;;;5063470;23;20231;-46
2021/11/24 12:45:22;;;;;;;1.67;1.50;;;4.00;99.90;;;;;;5048734;28;20207;-47
2021/11/24 12:47:57;;;;;;;3.03;2.63;;;4.00;99.90;;;;;;5039529;28;20262;-49
2021/11/24 12:50:27;;;;;;;2.53;2.23;;;4.00;99.90;;;;;;5031179;28;20179;-45
2021/11/24 12:52:57;;;;;;;3.90;2.43;;;3.90;99.90;;;;;;5031166;28;20666;-51
2021/11/24 12:55:22;;;;;;;3.60;2.73;;;3.90;99.90;;;;;;5031397;28;20167;-45
2021/11/24 12:57:48;;;;;;;3.27;2.53;;;3.90;99.90;;;;;;5035863;28;20182;-48